Portada
METAR-TAF:

METAR-TAF

Aeroports :

Àqaba, Jordània

latitud: 29-38N, longitud: 035-01E, altitud: 53 m

Observació

L'informe es va fer fa 38 minuts, a les 15:00 UTC
Vent 8 kt del Nord-Oest
Temperatura 40°C
Humitat 25%
Pressió 1002 hPa
Visibilitat 10 km o més
sense núvols per sota de 1500 mi sense presència de cumulonimbus.

METAR: OJAQ 051500Z 32008KT CAVOK 40/16 Q1002 NOSIG

Hora: 18:38 (15:38 UTC)

Pronòstic

L'informe es va fer fa 5 hores i 16 minuts, a les 10:22 UTC
Pronòstic vàlid del 05 a les 12 UTC al 06 a les 18 UTC
Vent 14 kt del Nord
Visibilitat: 7000 m

TAF: OJAQ 051022Z 0512/0618 36014KT 7000 NSC

Observacions i pronòstics meteorològics de més de 4000 aeroports (METAR i TAF).

Les estacions disponibles són els punts grocs i vermells al mapa.

Posi el ratolí al punt desitjat per veure el nom de l'estació.

Feu clic per veure les observacions i els pronòstics meteorològics.

Per canviar el mapa: feu clic els botons verds amb una creu de color negre per apropar; al botó verd amb un guió per allunyar la imatge; o en les fletxes verdes per a mapes adjacents.


METAR-TAF: